Impacts TAF Board INFO
FOR SITUATIONAL AWARENESS. NOT TO BE USED FOR FLIGHT PLANNING PURPOSES.
IDs:

KCLT - Charlotte/Douglas In, NC, US

Issued at 2333 UTC 22 Jun 2018
Updated at 0027 UTC 23 Jun 2018
Potential Impact None Slight Moderate High
Time<<23/13Z 23/14Z 23/15Z 23/16Z 23/17Z 23/18Z 23/19Z 23/20Z 23/21Z 23/22Z 23/23Z 24/00Z 24/01Z>>
Type PRVL PRVL PRVL PRVL PRVL PRVL PRVL PRVL PRVL PRVL PRVL PRVL PRVL
VIS >6 >6 >6 >6 >6 >6 >6 >6 >6 >6 >6 >6 >6
CIG 120 120 -- -- -- -- -- -- -- -- -- -- --
Cover BKN BKN SCT SCT SCT SCT SCT SCT SCT SCT SCT SCT SCT
FltCat VFR VFR VFR VFR VFR VFR VFR VFR VFR VFR VFR VFR VFR
WX -- -- -- -- -- -- -- -- -- -- -- -- --
WDir 220 220 240 240 240 240 240 240 240 240 240 240 240
WSpd 5 5 9 9 9 9 9 9 9 9 9 9 9
WGst -- -- -- -- -- -- -- -- -- -- -- -- --

Raw TAF
KCLT 222333Z 2300/2406 23011G20KT P6SM VCSH SCT060 SCT250
  TEMPO 2300/2304 VRB20G25KT 4SM -TSRA BKN050CB
  FM230400 21005KT P6SM VCSH BKN060
  FM230700 22005KT P6SM BKN120
  FM231500 24009KT P6SM SCT060 SCT250


METAR Board
Radar Display
Forecast Discussion

FOR SITUATIONAL AWARENESS. NOT TO BE USED FOR FLIGHT PLANNING PURPOSES.